createdAt,value
2023-01-18T00:00:28.988Z,5.90
2023-01-18T00:01:28.943Z,6.10
2023-01-18T00:02:28.945Z,6.40
2023-01-18T00:03:28.926Z,6.50
2023-01-18T00:04:28.911Z,6.50
2023-01-18T00:05:28.907Z,6.60
2023-01-18T00:06:28.901Z,6.80
2023-01-18T00:07:28.883Z,8.40
2023-01-18T00:08:28.866Z,7.00
2023-01-18T00:09:28.855Z,7.70
2023-01-18T00:10:28.850Z,8.20
2023-01-18T00:11:28.848Z,10.30
2023-01-18T00:12:28.833Z,8.30
2023-01-18T00:13:28.809Z,8.20
2023-01-18T00:14:28.801Z,7.80
2023-01-18T00:15:28.790Z,8.20
2023-01-18T00:16:28.827Z,8.70
2023-01-18T00:17:28.784Z,9.10
2023-01-18T00:18:28.759Z,9.00
2023-01-18T00:19:28.744Z,9.40
2023-01-18T00:20:28.760Z,8.00
2023-01-18T00:21:28.744Z,8.10
2023-01-18T00:22:28.735Z,7.80
2023-01-18T00:23:28.731Z,9.90
2023-01-18T00:24:28.705Z,8.40
2023-01-18T00:25:28.678Z,8.20
2023-01-18T00:26:28.677Z,8.40
2023-01-18T00:27:28.661Z,8.70
2023-01-18T00:28:28.657Z,7.40
2023-01-18T00:29:28.648Z,7.40
2023-01-18T00:30:28.630Z,7.30
2023-01-18T00:31:28.674Z,7.30
2023-01-18T00:32:28.610Z,7.40
2023-01-18T00:33:28.633Z,7.50
2023-01-18T00:34:28.590Z,6.80
2023-01-18T00:35:28.660Z,6.20
2023-01-18T00:36:28.566Z,6.40
2023-01-18T00:37:28.562Z,6.40
2023-01-18T00:38:28.547Z,6.80
2023-01-18T00:39:28.557Z,7.70
2023-01-18T00:40:28.521Z,6.30
2023-01-18T00:41:28.509Z,6.20
2023-01-18T00:42:28.515Z,6.20
2023-01-18T00:43:28.490Z,6.10
2023-01-18T00:44:28.484Z,6.70
2023-01-18T00:45:28.533Z,6.10
2023-01-18T00:46:28.457Z,5.90
2023-01-18T00:47:28.443Z,5.60
2023-01-18T00:48:28.447Z,5.70
2023-01-18T00:49:28.421Z,6.20
2023-01-18T00:50:28.408Z,6.20
2023-01-18T00:51:28.415Z,6.60
2023-01-18T00:52:28.394Z,7.30
2023-01-18T00:53:28.378Z,6.80
2023-01-18T00:54:28.367Z,6.60
2023-01-18T00:55:28.364Z,6.80
2023-01-18T00:56:28.375Z,6.90
2023-01-18T00:57:28.336Z,6.90
2023-01-18T00:58:28.322Z,8.50
2023-01-18T00:59:28.314Z,7.00
2023-01-18T01:00:28.304Z,6.90
2023-01-18T01:01:28.362Z,7.50
2023-01-18T01:02:28.359Z,6.90
2023-01-18T01:03:28.274Z,7.00
2023-01-18T01:04:28.264Z,7.20
2023-01-18T01:05:28.252Z,8.20
2023-01-18T01:06:28.261Z,6.80
2023-01-18T01:07:28.230Z,7.20
2023-01-18T01:08:28.215Z,6.50
2023-01-18T01:09:28.205Z,7.20
2023-01-18T01:10:28.211Z,6.10
2023-01-18T01:11:28.188Z,7.30
2023-01-18T01:12:28.180Z,7.30
2023-01-18T01:13:28.175Z,6.90
2023-01-18T01:14:28.144Z,6.60
2023-01-18T01:15:28.149Z,7.50
2023-01-18T01:16:28.159Z,7.90
2023-01-18T01:17:28.120Z,6.20
2023-01-18T01:18:28.119Z,7.40
2023-01-18T01:19:28.105Z,6.20
2023-01-18T01:20:28.097Z,6.00
2023-01-18T01:21:28.102Z,6.30
2023-01-18T01:22:28.067Z,6.40
2023-01-18T01:23:28.069Z,6.90
2023-01-18T01:24:28.053Z,6.70
2023-01-18T01:25:28.038Z,6.50
2023-01-18T01:26:28.038Z,6.80
2023-01-18T01:27:28.015Z,5.80
2023-01-18T01:28:28.023Z,7.00
2023-01-18T01:29:28.000Z,6.60
2023-01-18T01:30:27.986Z,6.60
2023-01-18T01:31:27.977Z,7.10
2023-01-18T01:32:27.978Z,6.40
2023-01-18T01:33:27.947Z,6.70
2023-01-18T01:34:27.942Z,7.60
2023-01-18T01:35:27.926Z,6.40
2023-01-18T01:36:27.913Z,6.20
2023-01-18T01:37:27.917Z,6.80
2023-01-18T01:38:27.899Z,6.20
2023-01-18T01:39:27.885Z,5.80
2023-01-18T01:40:27.870Z,5.80
2023-01-18T01:41:27.860Z,6.20
2023-01-18T01:42:27.868Z,6.20
2023-01-18T01:43:27.836Z,6.30
2023-01-18T01:44:27.863Z,6.80
2023-01-18T01:45:27.824Z,6.70
2023-01-18T01:46:27.813Z,7.30
2023-01-18T01:47:27.813Z,6.90
2023-01-18T01:48:27.787Z,6.30
2023-01-18T01:49:27.781Z,7.30
2023-01-18T01:50:27.784Z,6.30
2023-01-18T01:51:27.752Z,6.30
2023-01-18T01:52:27.781Z,6.60
2023-01-18T01:53:27.735Z,7.50
2023-01-18T01:54:27.722Z,7.00
2023-01-18T01:55:27.721Z,6.90
2023-01-18T01:56:27.701Z,7.80
2023-01-18T01:57:27.689Z,6.20
2023-01-18T01:58:27.697Z,7.40
2023-01-18T01:59:27.670Z,8.10
2023-01-18T02:00:27.652Z,7.60
2023-01-18T02:01:27.743Z,6.80
2023-01-18T02:02:27.702Z,7.20
2023-01-18T02:03:27.655Z,6.90
2023-01-18T02:04:27.614Z,7.40
2023-01-18T02:05:27.609Z,6.60
2023-01-18T02:06:27.616Z,7.40
2023-01-18T02:07:27.580Z,7.90
2023-01-18T02:08:27.586Z,8.20
2023-01-18T02:09:27.560Z,7.00
2023-01-18T02:10:27.545Z,7.20
2023-01-18T02:11:27.555Z,7.90
2023-01-18T02:12:27.532Z,7.60
2023-01-18T02:13:27.531Z,7.90
2023-01-18T02:14:27.510Z,7.60
2023-01-18T02:15:27.503Z,7.00
2023-01-18T02:16:27.545Z,7.50
2023-01-18T02:17:27.470Z,7.40
2023-01-18T02:18:27.476Z,7.70
2023-01-18T02:19:27.451Z,8.10
2023-01-18T02:20:27.435Z,7.40
2023-01-18T02:21:27.433Z,7.40
2023-01-18T02:22:27.418Z,7.20
2023-01-18T02:23:27.443Z,7.60
2023-01-18T02:24:27.423Z,7.40
2023-01-18T02:25:27.389Z,8.90
2023-01-18T02:26:27.379Z,8.00
2023-01-18T02:27:27.370Z,6.90
2023-01-18T02:28:27.357Z,7.90
2023-01-18T02:29:27.359Z,7.50
2023-01-18T02:30:27.334Z,8.00
2023-01-18T02:31:27.323Z,7.70
2023-01-18T02:32:27.307Z,7.80
2023-01-18T02:33:27.321Z,7.40
2023-01-18T02:34:27.287Z,8.10
2023-01-18T02:35:27.278Z,7.70
2023-01-18T02:36:27.269Z,8.10
2023-01-18T02:37:27.260Z,7.60
2023-01-18T02:38:27.257Z,8.10
2023-01-18T02:39:27.235Z,8.60
2023-01-18T02:40:27.238Z,7.30
2023-01-18T02:41:27.215Z,8.10
2023-01-18T02:42:27.214Z,7.30
2023-01-18T02:43:27.209Z,8.20
2023-01-18T02:44:27.244Z,7.90
2023-01-18T02:45:27.177Z,8.00
2023-01-18T02:46:27.212Z,7.90
2023-01-18T02:47:27.151Z,8.50
2023-01-18T02:48:27.154Z,8.00
2023-01-18T02:49:27.169Z,8.60
2023-01-18T02:50:27.144Z,8.10
2023-01-18T02:51:27.119Z,8.50
2023-01-18T02:52:27.099Z,9.20
2023-01-18T02:53:27.114Z,7.90
2023-01-18T02:54:27.092Z,7.80
2023-01-18T02:55:27.065Z,7.80
2023-01-18T02:56:27.080Z,7.70
2023-01-18T02:57:27.074Z,7.80
2023-01-18T02:58:27.032Z,7.60
2023-01-18T02:59:27.027Z,8.00
2023-01-18T03:00:27.023Z,7.50
2023-01-18T03:01:27.300Z,7.90
2023-01-18T03:02:27.038Z,8.70
2023-01-18T03:03:26.995Z,7.70
2023-01-18T03:04:26.964Z,7.60
2023-01-18T03:05:26.964Z,7.10
2023-01-18T03:06:26.996Z,8.70
2023-01-18T03:07:26.947Z,7.30
2023-01-18T03:08:26.935Z,7.70
2023-01-18T03:09:26.914Z,7.30
2023-01-18T03:10:26.896Z,7.10
2023-01-18T03:11:26.892Z,7.40
2023-01-18T03:12:26.902Z,7.80
2023-01-18T03:13:26.876Z,7.00
2023-01-18T03:14:26.868Z,6.80
2023-01-18T03:15:26.870Z,7.80
2023-01-18T03:16:26.842Z,7.90
2023-01-18T03:17:26.850Z,7.40
2023-01-18T03:18:26.818Z,8.20
2023-01-18T03:19:26.803Z,7.40
2023-01-18T03:20:26.804Z,7.20
2023-01-18T03:21:26.780Z,8.50
2023-01-18T03:22:26.776Z,7.50
2023-01-18T03:23:26.783Z,7.50
2023-01-18T03:24:26.754Z,7.90
2023-01-18T03:25:26.751Z,7.20
2023-01-18T03:26:26.752Z,8.00
2023-01-18T03:27:26.738Z,7.30
2023-01-18T03:28:26.730Z,7.00
2023-01-18T03:29:26.704Z,7.50
2023-01-18T03:30:26.685Z,7.30
2023-01-18T03:31:26.677Z,6.70
2023-01-18T03:32:26.669Z,7.40
2023-01-18T03:33:26.668Z,8.00
2023-01-18T03:34:26.641Z,7.90
2023-01-18T03:35:26.632Z,7.80
2023-01-18T03:36:26.646Z,8.30
2023-01-18T03:37:26.611Z,7.60
2023-01-18T03:38:26.607Z,7.30
2023-01-18T03:39:26.614Z,7.20
2023-01-18T03:40:26.590Z,7.40
2023-01-18T03:41:26.577Z,8.10
2023-01-18T03:42:26.567Z,7.60
2023-01-18T03:43:26.548Z,7.30
2023-01-18T03:44:26.573Z,7.80
2023-01-18T03:45:26.548Z,7.40
2023-01-18T03:46:26.558Z,7.70
2023-01-18T03:47:26.513Z,7.70
2023-01-18T03:48:26.493Z,7.80
2023-01-18T03:49:26.506Z,7.50
2023-01-18T03:50:26.471Z,7.10
2023-01-18T03:51:26.472Z,7.00
2023-01-18T03:52:26.454Z,7.50
2023-01-18T03:53:26.443Z,7.30
2023-01-18T03:54:26.443Z,6.80
2023-01-18T03:55:26.441Z,7.10
2023-01-18T03:56:26.403Z,6.90
2023-01-18T03:57:26.399Z,7.10
2023-01-18T03:58:26.387Z,7.90
2023-01-18T03:59:26.398Z,6.90
2023-01-18T04:00:26.365Z,6.50
2023-01-18T04:01:26.462Z,6.70
2023-01-18T04:02:26.408Z,7.10
2023-01-18T04:03:26.335Z,6.80
2023-01-18T04:04:26.347Z,6.90
2023-01-18T04:05:26.309Z,7.00
2023-01-18T04:06:26.312Z,8.10
2023-01-18T04:07:26.308Z,6.70
2023-01-18T04:08:26.291Z,7.60
2023-01-18T04:09:26.289Z,7.60
2023-01-18T04:10:26.267Z,7.00
2023-01-18T04:11:26.268Z,6.70
2023-01-18T04:12:26.235Z,6.80
2023-01-18T04:13:26.224Z,8.00
2023-01-18T04:14:26.228Z,6.70
2023-01-18T04:15:26.222Z,7.50
2023-01-18T04:16:26.197Z,7.70
2023-01-18T04:17:26.183Z,7.00
2023-01-18T04:18:26.165Z,7.10
2023-01-18T04:19:26.163Z,6.60
2023-01-18T04:20:26.166Z,8.20
2023-01-18T04:21:26.147Z,7.30
2023-01-18T04:22:26.127Z,7.00
2023-01-18T04:23:26.124Z,7.00
2023-01-18T04:24:26.109Z,7.30
2023-01-18T04:25:26.112Z,7.20
2023-01-18T04:26:26.112Z,6.80
2023-01-18T04:27:26.086Z,6.90
2023-01-18T04:28:26.113Z,7.30
2023-01-18T04:29:26.064Z,6.30
2023-01-18T04:30:26.042Z,7.10
2023-01-18T04:31:26.078Z,6.70
2023-01-18T04:32:26.034Z,6.30
2023-01-18T04:33:26.006Z,6.30
2023-01-18T04:34:26.002Z,6.60
2023-01-18T04:35:25.991Z,6.80
2023-01-18T04:36:25.988Z,6.70
2023-01-18T04:37:25.988Z,7.50
2023-01-18T04:38:25.950Z,6.30
2023-01-18T04:39:25.944Z,6.60
2023-01-18T04:40:25.939Z,6.20
2023-01-18T04:41:25.933Z,6.20
2023-01-18T04:42:25.968Z,6.40
2023-01-18T04:43:25.927Z,6.60
2023-01-18T04:44:33.655Z,6.90
2023-01-18T04:45:25.886Z,6.50
2023-01-18T04:46:25.889Z,6.80
2023-01-18T04:47:25.875Z,6.50
2023-01-18T04:48:25.862Z,7.20
2023-01-18T04:49:25.842Z,6.80
2023-01-18T04:50:25.828Z,6.30
2023-01-18T04:51:25.815Z,6.60
2023-01-18T04:52:25.808Z,6.60
2023-01-18T04:53:25.826Z,6.50
2023-01-18T04:54:25.778Z,7.20
2023-01-18T04:55:25.789Z,6.10
2023-01-18T04:56:25.770Z,5.90
2023-01-18T04:57:25.770Z,6.30
2023-01-18T04:58:25.767Z,6.20
2023-01-18T04:59:25.731Z,6.60
2023-01-18T05:00:25.750Z,6.00
2023-01-18T05:01:25.839Z,7.30
2023-01-18T05:02:25.834Z,8.40
2023-01-18T05:03:25.702Z,7.90
2023-01-18T05:04:25.679Z,7.90
2023-01-18T05:05:26.428Z,9.00
2023-01-18T05:06:25.652Z,7.10
2023-01-18T05:07:25.649Z,7.10
2023-01-18T05:08:25.653Z,7.00
2023-01-18T05:09:25.633Z,7.30
2023-01-18T05:10:25.603Z,6.80
2023-01-18T05:11:25.606Z,7.10
2023-01-18T05:12:25.584Z,6.10
2023-01-18T05:13:25.589Z,7.30
2023-01-18T05:14:25.576Z,6.40
2023-01-18T05:15:25.579Z,6.40
2023-01-18T05:16:25.602Z,7.10
2023-01-18T05:17:25.534Z,6.80
2023-01-18T05:18:25.539Z,7.00
2023-01-18T05:19:25.543Z,6.90
2023-01-18T05:20:25.501Z,7.30
2023-01-18T05:21:25.495Z,7.50
2023-01-18T05:22:25.502Z,7.00
2023-01-18T05:23:25.489Z,7.30
2023-01-18T05:24:25.855Z,7.00
2023-01-18T05:25:25.450Z,7.90
2023-01-18T05:26:25.454Z,8.20
2023-01-18T05:27:25.434Z,8.00
2023-01-18T05:28:25.439Z,7.60
2023-01-18T05:29:25.408Z,7.40
2023-01-18T05:30:25.389Z,8.40
2023-01-18T05:31:25.418Z,8.10
2023-01-18T05:32:25.382Z,8.80
2023-01-18T05:33:25.385Z,7.70
2023-01-18T05:34:25.371Z,7.20
2023-01-18T05:35:25.339Z,7.60
2023-01-18T05:36:25.332Z,8.00
2023-01-18T05:37:26.045Z,7.60
2023-01-18T05:38:25.338Z,7.20
2023-01-18T05:39:25.306Z,8.10
2023-01-18T05:40:25.287Z,7.10
2023-01-18T05:41:25.283Z,7.30
2023-01-18T05:42:25.265Z,6.70
2023-01-18T05:43:25.281Z,8.30
2023-01-18T05:44:25.248Z,7.40
2023-01-18T05:45:25.248Z,8.50
2023-01-18T05:46:25.230Z,7.50
2023-01-18T05:47:25.209Z,7.10
2023-01-18T05:48:25.224Z,7.90
2023-01-18T05:49:25.196Z,7.30
2023-01-18T05:50:25.200Z,7.60
2023-01-18T05:51:25.164Z,7.30
2023-01-18T05:52:25.161Z,7.80
2023-01-18T05:53:25.278Z,7.40
2023-01-18T05:54:25.161Z,8.40
2023-01-18T05:55:25.149Z,7.90
2023-01-18T05:56:25.150Z,7.80
2023-01-18T05:57:25.116Z,9.50
2023-01-18T05:58:25.097Z,7.50
2023-01-18T05:59:25.088Z,7.90
2023-01-18T06:00:25.084Z,7.20
2023-01-18T06:01:25.154Z,7.10
2023-01-18T06:02:25.045Z,7.60
2023-01-18T06:03:25.035Z,7.10
2023-01-18T06:04:25.063Z,7.40
2023-01-18T06:05:25.065Z,8.40
2023-01-18T06:06:25.006Z,8.00
2023-01-18T06:07:25.002Z,7.10
2023-01-18T06:08:25.005Z,7.80
2023-01-18T06:09:25.118Z,6.60
2023-01-18T06:10:24.961Z,7.60
2023-01-18T06:11:25.003Z,7.90
2023-01-18T06:12:24.948Z,6.80
2023-01-18T06:13:25.022Z,8.20
2023-01-18T06:14:24.923Z,6.80
2023-01-18T06:15:24.921Z,6.60
2023-01-18T06:16:24.926Z,7.30
2023-01-18T06:17:24.884Z,7.90
2023-01-18T06:18:24.882Z,6.70
2023-01-18T06:19:24.871Z,7.50
2023-01-18T06:20:24.851Z,7.30
2023-01-18T06:21:24.876Z,8.90
2023-01-18T06:22:24.838Z,8.10
2023-01-18T06:23:24.841Z,8.40
2023-01-18T06:24:24.821Z,6.40
2023-01-18T06:25:24.798Z,8.60
2023-01-18T06:26:24.815Z,8.60
2023-01-18T06:27:24.778Z,8.40
2023-01-18T06:28:24.780Z,8.60
2023-01-18T06:29:24.758Z,7.40
2023-01-18T06:30:24.758Z,7.20
2023-01-18T06:31:24.778Z,7.80
2023-01-18T06:32:24.736Z,6.90
2023-01-18T06:33:24.715Z,8.70
2023-01-18T06:34:24.711Z,7.90
2023-01-18T06:35:24.700Z,8.00
2023-01-18T06:36:24.699Z,7.40
2023-01-18T06:37:24.681Z,7.80
2023-01-18T06:38:24.679Z,6.80
2023-01-18T06:39:24.665Z,7.70
2023-01-18T06:40:24.646Z,6.90
2023-01-18T06:41:24.649Z,7.70
2023-01-18T06:42:24.611Z,6.60
2023-01-18T06:43:24.649Z,6.30
2023-01-18T06:44:24.594Z,6.10
2023-01-18T06:45:24.598Z,7.10
2023-01-18T06:46:24.592Z,6.30
2023-01-18T06:47:24.571Z,7.10
2023-01-18T06:48:24.597Z,6.80
2023-01-18T06:49:24.596Z,6.70
2023-01-18T06:50:24.527Z,6.20
2023-01-18T06:51:24.538Z,7.50
2023-01-18T06:52:24.526Z,5.60
2023-01-18T06:53:24.533Z,7.40
2023-01-18T06:54:24.579Z,6.90
2023-01-18T06:55:24.497Z,6.40
2023-01-18T06:56:24.466Z,7.40
2023-01-18T06:57:24.471Z,5.60
2023-01-18T06:58:24.460Z,6.70
2023-01-18T06:59:24.435Z,5.80
2023-01-18T07:00:24.438Z,5.60
2023-01-18T07:01:24.498Z,7.20
2023-01-18T07:02:24.416Z,6.30
2023-01-18T07:03:24.411Z,7.80
2023-01-18T07:04:24.472Z,6.40
2023-01-18T07:05:24.373Z,5.70
2023-01-18T07:06:24.384Z,5.90
2023-01-18T07:07:24.352Z,7.30
2023-01-18T07:08:24.395Z,6.40
2023-01-18T07:09:24.331Z,6.20
2023-01-18T07:10:24.336Z,7.50
2023-01-18T07:11:24.315Z,5.10
2023-01-18T07:12:24.320Z,5.70
2023-01-18T07:13:24.298Z,7.10
2023-01-18T07:14:24.281Z,5.60
2023-01-18T07:15:24.273Z,6.80
2023-01-18T07:16:24.301Z,7.90
2023-01-18T07:17:24.261Z,6.80
2023-01-18T07:18:24.282Z,5.90
2023-01-18T07:19:24.223Z,5.90
2023-01-18T07:20:24.211Z,6.20
2023-01-18T07:21:24.212Z,6.50
2023-01-18T07:22:24.189Z,6.20
2023-01-18T07:23:24.184Z,6.50
2023-01-18T07:24:24.190Z,6.30
2023-01-18T07:25:24.165Z,6.30
2023-01-18T07:26:24.169Z,6.10
2023-01-18T07:27:24.144Z,7.60
2023-01-18T07:28:24.126Z,6.00
2023-01-18T07:29:24.117Z,6.40
2023-01-18T07:30:24.120Z,6.40
2023-01-18T07:31:24.111Z,9.30
2023-01-18T07:32:24.074Z,6.30
2023-01-18T07:33:24.086Z,6.50
2023-01-18T07:34:24.075Z,6.10
2023-01-18T07:35:24.110Z,6.70
2023-01-18T07:36:24.058Z,5.90
2023-01-18T07:37:24.042Z,5.50
2023-01-18T07:38:24.057Z,5.90
2023-01-18T07:39:24.018Z,6.20
2023-01-18T07:40:24.008Z,7.30
2023-01-18T07:41:24.009Z,6.00
2023-01-18T07:42:23.976Z,7.40
2023-01-18T07:43:23.961Z,6.30
2023-01-18T07:44:23.948Z,5.20
2023-01-18T07:45:23.973Z,5.80
2023-01-18T07:46:24.019Z,5.40
2023-01-18T07:47:23.914Z,5.60
2023-01-18T07:48:23.910Z,5.60
2023-01-18T07:49:23.918Z,6.40
2023-01-18T07:50:23.901Z,5.40
2023-01-18T07:51:23.892Z,6.70
2023-01-18T07:52:23.865Z,6.00
2023-01-18T07:53:23.887Z,5.90
2023-01-18T07:54:23.872Z,8.00
2023-01-18T07:55:23.828Z,5.00
2023-01-18T07:56:23.822Z,7.10
2023-01-18T07:57:23.824Z,6.00
2023-01-18T07:58:23.801Z,6.70
2023-01-18T07:59:23.832Z,5.10
2023-01-18T08:00:23.783Z,6.10
2023-01-18T08:01:23.906Z,5.90
2023-01-18T08:02:23.771Z,5.60
2023-01-18T08:03:23.739Z,6.10
2023-01-18T08:04:23.757Z,5.40
2023-01-18T08:05:23.744Z,5.20
2023-01-18T08:06:23.718Z,6.10
2023-01-18T08:07:23.712Z,4.70
2023-01-18T08:08:23.697Z,6.10
2023-01-18T08:09:23.707Z,5.10
2023-01-18T08:10:23.672Z,6.00
2023-01-18T08:11:23.668Z,5.20
2023-01-18T08:12:23.651Z,4.70
2023-01-18T08:13:23.640Z,5.20
2023-01-18T08:14:23.636Z,5.40
2023-01-18T08:15:23.655Z,6.30
2023-01-18T08:16:23.608Z,4.10
2023-01-18T08:17:23.599Z,5.30
2023-01-18T08:18:23.605Z,4.90
2023-01-18T08:19:23.576Z,7.50
2023-01-18T08:20:23.626Z,4.90
2023-01-18T08:21:23.550Z,5.50
2023-01-18T08:22:23.544Z,8.40
2023-01-18T08:23:23.555Z,5.80
2023-01-18T08:24:23.525Z,5.50
2023-01-18T08:25:23.531Z,4.80
2023-01-18T08:26:23.509Z,6.10
2023-01-18T08:27:25.213Z,6.30
2023-01-18T08:28:23.477Z,5.60
2023-01-18T08:29:23.543Z,4.50
2023-01-18T08:30:23.459Z,5.30
2023-01-18T08:31:23.506Z,4.90
2023-01-18T08:32:23.466Z,6.10
2023-01-18T08:33:23.437Z,4.90
2023-01-18T08:34:23.444Z,4.30
2023-01-18T08:35:24.385Z,5.40
2023-01-18T08:36:23.431Z,6.10
2023-01-18T08:37:23.392Z,5.50
2023-01-18T08:38:23.375Z,6.40
2023-01-18T08:39:23.355Z,9.50
2023-01-18T08:40:23.367Z,14.40
2023-01-18T08:41:23.336Z,12.20
2023-01-18T08:42:23.321Z,11.90
2023-01-18T08:43:23.328Z,10.10
2023-01-18T08:44:23.310Z,6.60
2023-01-18T08:45:23.348Z,5.20
2023-01-18T08:46:23.353Z,7.50
2023-01-18T08:47:23.298Z,5.50
2023-01-18T08:48:23.272Z,6.40
2023-01-18T08:49:23.248Z,4.80
2023-01-18T08:50:23.251Z,4.70
2023-01-18T08:51:23.354Z,5.10
2023-01-18T08:52:23.235Z,5.50
2023-01-18T08:53:23.206Z,4.30
2023-01-18T08:54:23.205Z,7.60
2023-01-18T08:55:23.184Z,6.10
2023-01-18T08:56:23.188Z,6.20
2023-01-18T08:57:23.192Z,6.40
2023-01-18T08:58:23.167Z,5.50
2023-01-18T08:59:23.190Z,5.20
2023-01-18T09:00:23.463Z,4.80
2023-01-18T09:01:23.744Z,7.80
2023-01-18T09:02:23.141Z,8.00
2023-01-18T09:03:23.114Z,10.60
2023-01-18T09:04:23.255Z,11.60
2023-01-18T09:05:23.089Z,10.10
2023-01-18T09:06:23.742Z,8.80
2023-01-18T09:07:23.067Z,9.40
2023-01-18T09:08:23.037Z,9.40
2023-01-18T09:09:23.029Z,8.60
2023-01-18T09:10:23.045Z,7.30
2023-01-18T09:11:23.042Z,6.50
2023-01-18T09:12:22.997Z,8.30
2023-01-18T09:13:23.031Z,7.70
2023-01-18T09:14:22.998Z,6.40
2023-01-18T09:15:22.970Z,7.00
2023-01-18T09:16:23.016Z,7.40
2023-01-18T09:17:22.960Z,6.10
2023-01-18T09:18:22.960Z,5.80
2023-01-18T09:19:22.933Z,5.30
2023-01-18T09:20:22.926Z,7.40
2023-01-18T09:21:22.912Z,7.20
2023-01-18T09:22:22.894Z,7.40
2023-01-18T09:23:22.889Z,5.90
2023-01-18T09:24:22.912Z,6.90
2023-01-18T09:25:22.859Z,6.60
2023-01-18T09:26:22.846Z,6.50
2023-01-18T09:27:22.835Z,6.00
2023-01-18T09:28:22.840Z,6.60
2023-01-18T09:29:22.835Z,6.60
2023-01-18T09:30:22.805Z,7.90
2023-01-18T09:31:22.830Z,6.70
2023-01-18T09:32:22.785Z,6.60
2023-01-18T09:33:22.789Z,8.10
2023-01-18T09:34:22.796Z,12.00
2023-01-18T09:35:22.791Z,12.10
2023-01-18T09:36:22.756Z,8.50
2023-01-18T09:37:22.748Z,7.60
2023-01-18T09:38:22.723Z,7.50
2023-01-18T09:39:22.741Z,8.90
2023-01-18T09:40:22.725Z,7.40
2023-01-18T09:41:22.687Z,7.60
2023-01-18T09:42:22.677Z,8.00
2023-01-18T09:43:22.677Z,9.50
2023-01-18T09:44:22.665Z,5.80
2023-01-18T09:45:22.658Z,6.80
2023-01-18T09:46:22.685Z,7.70
2023-01-18T09:47:22.628Z,6.90
2023-01-18T09:48:22.627Z,6.50
2023-01-18T09:49:22.604Z,7.40
2023-01-18T09:50:22.672Z,7.50
2023-01-18T09:51:22.586Z,7.30
2023-01-18T09:52:22.583Z,7.10
2023-01-18T09:53:22.561Z,8.30
2023-01-18T09:54:22.568Z,7.30
2023-01-18T09:55:22.540Z,8.20
2023-01-18T09:56:22.561Z,6.50
2023-01-18T09:57:22.545Z,5.80
2023-01-18T09:58:22.507Z,6.60
2023-01-18T09:59:22.495Z,7.10
2023-01-18T10:00:22.485Z,6.40
2023-01-18T10:01:22.565Z,7.70
2023-01-18T10:02:22.497Z,6.80
2023-01-18T10:03:22.505Z,7.50
2023-01-18T10:04:22.450Z,6.80
2023-01-18T10:05:22.440Z,10.40
2023-01-18T10:06:22.418Z,8.20
2023-01-18T10:07:22.410Z,7.70
2023-01-18T10:08:22.428Z,6.20
2023-01-18T10:09:22.407Z,6.80
2023-01-18T10:10:22.369Z,6.00
2023-01-18T10:11:22.384Z,7.10
2023-01-18T10:12:22.353Z,6.10
2023-01-18T10:13:22.342Z,7.20
2023-01-18T10:14:22.338Z,7.50
2023-01-18T10:15:22.389Z,6.90
2023-01-18T10:16:22.350Z,5.90
2023-01-18T10:17:22.296Z,5.70
2023-01-18T10:18:22.293Z,7.30
2023-01-18T10:19:22.276Z,7.50
2023-01-18T10:20:22.280Z,5.70
2023-01-18T10:21:22.294Z,7.00
2023-01-18T10:22:22.248Z,7.20
2023-01-18T10:23:22.241Z,7.00
2023-01-18T10:24:22.240Z,8.10
2023-01-18T10:25:22.229Z,6.70
2023-01-18T10:26:22.265Z,6.40
2023-01-18T10:27:22.201Z,6.70
2023-01-18T10:28:22.208Z,7.40
2023-01-18T10:29:22.181Z,7.60
2023-01-18T10:30:22.166Z,4.50
2023-01-18T10:31:22.219Z,6.70
2023-01-18T10:32:22.142Z,6.60
2023-01-18T10:33:22.173Z,7.50
2023-01-18T10:34:22.149Z,17.00
2023-01-18T10:35:22.130Z,22.30
2023-01-18T10:36:22.146Z,21.50
2023-01-18T10:37:22.145Z,20.70
2023-01-18T10:38:22.106Z,12.20
2023-01-18T10:39:22.064Z,10.10
2023-01-18T10:40:22.066Z,10.90
2023-01-18T10:41:22.051Z,5.70
2023-01-18T10:42:22.057Z,7.10
2023-01-18T10:43:22.049Z,9.10
2023-01-18T10:44:22.063Z,6.50
2023-01-18T10:45:22.232Z,5.50
2023-01-18T10:46:21.993Z,8.30
2023-01-18T10:47:22.046Z,4.80
2023-01-18T10:48:22.003Z,5.80
2023-01-18T10:49:21.970Z,5.30
2023-01-18T10:50:21.991Z,8.70
2023-01-18T10:51:21.934Z,6.00
2023-01-18T10:52:21.918Z,6.90
2023-01-18T10:53:33.110Z,6.20
2023-01-18T10:54:21.915Z,6.20
2023-01-18T10:55:21.901Z,7.00
2023-01-18T10:56:21.892Z,6.60
2023-01-18T10:57:21.872Z,6.30
2023-01-18T10:58:21.885Z,6.00
2023-01-18T10:59:21.862Z,5.90
2023-01-18T11:00:21.855Z,7.40
2023-01-18T11:01:21.923Z,6.00
2023-01-18T11:02:21.877Z,7.00
2023-01-18T11:03:21.807Z,7.40
2023-01-18T11:04:21.831Z,8.50
2023-01-18T11:05:21.786Z,7.50
2023-01-18T11:06:21.809Z,8.70
2023-01-18T11:07:21.765Z,9.10
2023-01-18T11:08:21.745Z,8.90
2023-01-18T11:09:21.756Z,9.20
2023-01-18T11:10:21.733Z,7.90
2023-01-18T11:11:21.716Z,8.40
2023-01-18T11:12:21.711Z,9.30
2023-01-18T11:13:21.715Z,8.30
2023-01-18T11:14:21.714Z,9.30
2023-01-18T11:15:21.688Z,10.70
2023-01-18T11:16:21.711Z,12.30
2023-01-18T11:17:21.683Z,13.10
2023-01-18T11:18:21.652Z,10.40
2023-01-18T11:19:21.633Z,9.70
2023-01-18T11:20:21.663Z,8.20
2023-01-18T11:21:21.635Z,7.80
2023-01-18T11:22:21.654Z,8.00
2023-01-18T11:23:21.608Z,7.20
2023-01-18T11:24:21.589Z,6.40
2023-01-18T11:25:21.581Z,5.20
2023-01-18T11:26:21.588Z,6.10
2023-01-18T11:27:21.601Z,7.30
2023-01-18T11:28:21.553Z,7.20
2023-01-18T11:29:21.548Z,5.60
2023-01-18T11:30:21.512Z,7.10
2023-01-18T11:31:22.271Z,6.00
2023-01-18T11:32:21.494Z,7.70
2023-01-18T11:33:21.495Z,8.00
2023-01-18T11:34:21.489Z,8.50
2023-01-18T11:35:21.463Z,8.50
2023-01-18T11:36:21.472Z,8.30
2023-01-18T11:37:21.433Z,6.80
2023-01-18T11:38:21.442Z,6.80
2023-01-18T11:39:21.437Z,7.30
2023-01-18T11:40:21.418Z,7.40
2023-01-18T11:41:21.413Z,6.40
2023-01-18T11:42:21.395Z,7.60
2023-01-18T11:43:21.397Z,6.00
2023-01-18T11:44:21.384Z,7.20
2023-01-18T11:45:22.472Z,8.60
2023-01-18T11:46:21.384Z,9.40
2023-01-18T11:47:21.459Z,7.40
2023-01-18T11:48:21.332Z,9.50
2023-01-18T11:49:21.313Z,9.70
2023-01-18T11:50:22.685Z,11.20
2023-01-18T11:51:21.302Z,9.00
2023-01-18T11:52:21.304Z,9.00
2023-01-18T11:53:21.268Z,7.40
2023-01-18T11:54:21.262Z,10.30
2023-01-18T11:55:21.251Z,6.10
2023-01-18T11:56:21.246Z,7.70
2023-01-18T11:57:21.222Z,5.80
2023-01-18T11:58:21.236Z,6.10
2023-01-18T11:59:22.154Z,7.30
2023-01-18T12:00:21.206Z,6.10
2023-01-18T12:01:21.223Z,7.20
2023-01-18T12:02:21.246Z,6.70
2023-01-18T12:03:21.208Z,5.50
2023-01-18T12:04:21.151Z,5.60
2023-01-18T12:05:21.138Z,6.90
2023-01-18T12:06:21.128Z,6.10
2023-01-18T12:07:21.116Z,7.60
2023-01-18T12:08:21.747Z,4.50
2023-01-18T12:09:21.106Z,4.70
2023-01-18T12:10:21.092Z,6.00
2023-01-18T12:11:21.087Z,6.10
2023-01-18T12:12:21.060Z,4.80
2023-01-18T12:13:21.072Z,5.00
2023-01-18T12:14:21.076Z,5.70
2023-01-18T12:15:21.077Z,6.10
2023-01-18T12:16:21.029Z,5.60
2023-01-18T12:17:21.033Z,5.70
2023-01-18T12:18:21.015Z,7.30
2023-01-18T12:19:21.024Z,7.80
2023-01-18T12:20:20.981Z,6.40
2023-01-18T12:21:20.973Z,7.10
2023-01-18T12:22:20.957Z,4.60
2023-01-18T12:23:20.956Z,5.50
2023-01-18T12:24:20.966Z,5.90
2023-01-18T12:25:20.967Z,5.30
2023-01-18T12:26:20.930Z,5.50
2023-01-18T12:27:20.944Z,6.10
2023-01-18T12:28:20.890Z,8.20
2023-01-18T12:29:20.885Z,5.50
2023-01-18T12:30:20.885Z,4.70
2023-01-18T12:31:20.885Z,6.60
2023-01-18T12:32:20.862Z,4.70
2023-01-18T12:33:31.273Z,6.30
2023-01-18T12:34:21.839Z,5.40
2023-01-18T12:35:24.852Z,5.80
2023-01-18T12:36:20.842Z,5.20
2023-01-18T12:37:20.815Z,5.60
2023-01-18T12:38:20.789Z,5.80
2023-01-18T12:39:20.777Z,6.90
2023-01-18T12:40:20.778Z,5.90
2023-01-18T12:41:20.757Z,5.70
2023-01-18T12:42:20.753Z,4.70
2023-01-18T12:43:20.741Z,6.90
2023-01-18T12:44:20.724Z,6.60
2023-01-18T12:45:20.702Z,7.10
2023-01-18T12:46:20.755Z,7.00
2023-01-18T12:47:20.684Z,7.60
2023-01-18T12:48:20.689Z,6.50
2023-01-18T12:49:20.675Z,6.20
2023-01-18T12:50:23.047Z,7.40
2023-01-18T12:51:20.648Z,6.40
2023-01-18T12:52:20.633Z,5.30
2023-01-18T12:53:20.613Z,6.10
2023-01-18T12:54:20.625Z,5.00
2023-01-18T12:55:20.603Z,5.60
2023-01-18T12:56:20.624Z,5.30
2023-01-18T12:57:20.597Z,12.80
2023-01-18T12:58:20.568Z,15.30
2023-01-18T12:59:20.598Z,13.00
2023-01-18T13:00:20.562Z,10.10
2023-01-18T13:01:20.628Z,9.00
2023-01-18T13:02:20.558Z,7.50
2023-01-18T13:03:20.515Z,7.00
2023-01-18T13:04:20.510Z,8.20
2023-01-18T13:05:20.506Z,6.00
2023-01-18T13:06:20.507Z,7.80
2023-01-18T13:07:20.471Z,5.80
2023-01-18T13:08:20.469Z,4.80
2023-01-18T13:09:20.449Z,6.00
2023-01-18T13:10:20.436Z,4.00
2023-01-18T13:11:20.444Z,6.20
2023-01-18T13:12:20.444Z,5.40
2023-01-18T13:13:20.409Z,5.30
2023-01-18T13:14:20.417Z,4.80
2023-01-18T13:15:20.397Z,5.70
2023-01-18T13:16:20.390Z,5.00
2023-01-18T13:17:20.396Z,5.60